Time;durP1;ratioP1;P1;durP2;ratioP2;P2;SDS_P1;SDS_P2;PMS_P1;PMS_P2;Temp;Humidity;BMP_temperature;BMP_pressure;BME280_temperature;BME280_humidity;BME280_pressure;Samples;Min_cycle;Max_cycle;Signal;HPM_P1;HPM_P2
2022/10/29 00:00:48;;;;;;;8.90;6.20;;;;;;;12.17;78.60;101192.03;1715711;83;21244;-77
2022/10/29 00:03:53;;;;;;;12.80;6.42;;;;;;;12.26;78.48;101186.41;1715941;83;21231;-76
2022/10/29 00:07:01;;;;;;;8.35;5.97;;;;;;;12.22;78.51;101185.02;1716250;83;21787;-76
2022/10/29 00:10:06;;;;;;;10.40;6.35;;;;;;;12.30;78.39;101178.72;1715405;83;21248;-76
2022/10/29 00:13:11;;;;;;;12.05;6.85;;;;;;;12.29;78.43;101185.23;1716284;83;21184;-76
2022/10/29 00:16:21;;;;;;;8.83;6.10;;;;;;;12.28;78.40;101180.78;1716320;83;21212;-76
2022/10/29 00:19:28;;;;;;;8.33;6.03;;;;;;;12.34;78.32;101178.73;1717045;83;21243;-76
2022/10/29 00:22:33;;;;;;;8.75;5.95;;;;;;;12.49;77.81;101178.42;1716320;83;21210;-76
2022/10/29 00:25:40;;;;;;;7.15;5.47;;;;;;;12.50;77.75;101178.77;1716224;83;21264;-77
2022/10/29 00:28:45;;;;;;;12.00;5.78;;;;;;;12.41;78.05;101178.39;1716336;83;21184;-77
2022/10/29 00:31:52;;;;;;;9.78;5.50;;;;;;;12.38;78.27;101178.75;1715327;83;21188;-77
2022/10/29 00:34:58;;;;;;;7.37;5.00;;;;;;;12.37;78.31;101172.89;1697935;84;21357;-77
2022/10/29 00:38:04;;;;;;;7.22;5.25;;;;;;;12.41;78.17;101169.31;1698908;84;21180;-76
2022/10/29 00:41:12;;;;;;;9.08;6.00;;;;;;;12.44;78.36;101175.33;1698294;84;21239;-76
2022/10/29 00:44:37;;;;;;;10.70;6.08;;;;;;;12.49;78.02;101174.31;1698719;84;21235;-77
2022/10/29 00:47:44;;;;;;;7.97;5.72;;;;;;;12.36;78.51;101168.95;1698760;84;21231;-77
2022/10/29 00:50:51;;;;;;;7.15;5.75;;;;;;;12.30;78.99;101165.00;1697489;84;21235;-77
2022/10/29 00:54:07;;;;;;;9.53;5.95;;;;;;;12.37;78.86;101166.55;1699746;84;21174;-76
2022/10/29 00:57:28;;;;;;;8.85;5.78;;;;;;;12.36;78.95;101167.06;1699211;84;21200;-77
2022/10/29 01:00:37;;;;;;;7.78;4.55;;;;;;;12.41;78.88;101167.94;1699169;84;21247;-76
2022/10/29 01:03:42;;;;;;;7.12;4.80;;;;;;;12.44;78.90;101164.88;1698802;84;21199;-76
2022/10/29 01:06:49;;;;;;;7.62;5.70;;;;;;;12.54;78.50;101160.09;1698813;84;21743;-77
2022/10/29 01:09:55;;;;;;;10.13;5.67;;;;;;;12.63;78.19;101165.08;1697998;84;21244;-77
2022/10/29 01:13:20;;;;;;;7.60;5.17;;;;;;;12.57;78.41;101164.39;1698763;84;21251;-77
2022/10/29 01:16:36;;;;;;;7.20;4.80;;;;;;;12.57;78.53;101161.65;1698647;84;21215;-77
2022/10/29 01:19:51;;;;;;;8.43;4.67;;;;;;;12.49;78.56;101157.84;1676927;84;21271;-77
2022/10/29 01:23:19;;;;;;;6.72;4.92;;;;;;;12.56;78.49;101155.27;1697471;84;21295;-76
2022/10/29 01:26:55;;;;;;;7.40;4.95;;;;;;;12.50;78.55;101149.95;1698657;84;21235;-77
2022/10/29 01:30:12;;;;;;;9.33;4.90;;;;;;;12.73;77.81;101153.42;1697308;84;21199;-77
2022/10/29 01:33:31;;;;;;;7.83;5.00;;;;;;;12.72;77.55;101158.58;1697883;82;21215;-77
2022/10/29 01:36:47;;;;;;;7.40;5.42;;;;;;;12.76;77.36;101153.95;1693997;84;21270;-77
2022/10/29 01:40:01;;;;;;;8.00;5.08;;;;;;;12.71;77.46;101154.12;1695407;84;21246;-77
2022/10/29 01:43:27;;;;;;;7.65;5.03;;;;;;;12.69;77.56;101157.53;1694095;84;21801;-77
2022/10/29 01:47:03;;;;;;;5.97;4.15;;;;;;;12.73;77.35;101153.42;1695216;84;21247;-77
2022/10/29 01:50:10;;;;;;;7.40;5.08;;;;;;;12.69;77.32;101150.67;1695352;84;21234;-77
2022/10/29 01:53:16;;;;;;;7.55;5.28;;;;;;;12.72;77.11;101144.85;1693936;84;21187;-77
2022/10/29 01:56:22;;;;;;;6.50;4.90;;;;;;;12.77;76.98;101145.20;1695053;84;21512;-77
2022/10/29 01:59:27;;;;;;;13.48;5.30;;;;;;;12.78;76.83;101140.05;1695059;84;21179;-76
2022/10/29 02:02:46;;;;;;;6.90;5.20;;;;;;;12.74;77.01;101135.92;1694496;84;21227;-77
2022/10/29 02:06:27;;;;;;;8.08;5.42;;;;;;;12.66;77.16;101140.91;1694684;84;21275;-76
2022/10/29 02:09:37;;;;;;;12.23;5.75;;;;;;;12.59;77.27;101139.85;1694637;84;21231;-76
2022/10/29 02:12:56;;;;;;;9.63;5.40;;;;;;;12.68;76.92;101136.61;1693778;84;21191;-77
2022/10/29 02:16:03;;;;;;;10.13;5.30;;;;;;;12.67;76.90;101132.16;1695311;84;21192;-77
2022/10/29 02:19:10;;;;;;;6.72;5.50;;;;;;;12.66;76.80;101131.30;1695300;84;21183;-76
2022/10/29 02:22:16;;;;;;;8.10;5.03;;;;;;;12.67;76.50;101138.50;1672624;84;21283;-77
2022/10/29 02:25:22;;;;;;;9.98;5.47;;;;;;;12.59;76.32;101129.39;1695362;84;21247;-78
2022/10/29 02:28:27;;;;;;;9.13;5.53;;;;;;;12.48;76.21;101125.95;1695342;84;21753;-78
2022/10/29 02:31:35;;;;;;;9.58;5.42;;;;;;;12.31;76.45;101121.45;1695284;84;21195;-78
2022/10/29 02:34:41;;;;;;;9.05;5.33;;;;;;;12.22;76.19;101115.59;1696099;82;21242;-78
2022/10/29 02:37:47;;;;;;;6.62;5.08;;;;;;;12.00;76.59;101111.09;1693894;84;21206;-78
2022/10/29 02:40:54;;;;;;;6.83;5.00;;;;;;;11.87;76.64;101107.95;1695259;84;21196;-78
2022/10/29 02:43:59;;;;;;;8.58;5.58;;;;;;;11.89;76.41;101102.30;1694184;84;21203;-78
2022/10/29 02:47:05;;;;;;;13.05;5.28;;;;;;;11.78;76.35;101111.66;1694132;84;21243;-77
2022/10/29 02:50:12;;;;;;;7.37;5.22;;;;;;;11.46;77.01;101106.34;1695311;84;21176;-77
2022/10/29 02:53:11;;;;;;;7.58;5.05;;;;;;;11.53;76.84;101102.47;1695579;84;21702;-77
2022/10/29 02:56:04;;;;;;;10.05;6.28;;;;;;;11.46;76.97;101103.61;1695534;84;21797;-77
2022/10/29 02:59:10;;;;;;;;;;;;;;;11.43;77.21;101108.55;1697803;84;21230;-78
2022/10/29 03:02:16;;;;;;;8.70;5.78;;;;;;;11.39;77.67;101105.81;1695278;84;20608;-77
2022/10/29 03:05:20;;;;;;;7.97;5.80;;;;;;;11.31;78.42;101107.13;1695319;84;21235;-77
2022/10/29 03:08:27;;;;;;;9.90;6.25;;;;;;;11.32;78.88;101112.43;1695289;84;21786;-77
2022/10/29 03:11:32;;;;;;;8.75;6.12;;;;;;;11.36;79.17;101104.76;1695378;84;21513;-77
2022/10/29 03:14:39;;;;;;;8.30;5.78;;;;;;;11.33;79.53;101105.92;1695346;84;21199;-77
2022/10/29 03:17:45;;;;;;;8.95;5.60;;;;;;;11.42;79.47;101104.95;1695237;84;21199;-77
2022/10/29 03:20:52;;;;;;;9.03;6.97;;;;;;;11.37;79.99;101105.09;1695206;84;21183;-77
2022/10/29 03:23:59;;;;;;;9.78;6.78;;;;;;;11.44;79.83;101100.19;1694490;84;21235;-77
2022/10/29 03:27:05;;;;;;;8.45;6.47;;;;;;;11.51;79.43;101098.50;1693943;84;21200;-77
2022/10/29 03:30:14;;;;;;;14.13;6.55;;;;;;;11.46;79.70;101090.42;1695348;84;21208;-77
2022/10/29 03:33:21;;;;;;;14.20;7.35;;;;;;;11.49;79.58;101095.08;1695415;84;21199;-77
2022/10/29 03:36:27;;;;;;;8.33;6.60;;;;;;;11.45;79.56;101085.98;1696369;82;21227;-77
2022/10/29 03:39:33;;;;;;;7.58;6.47;;;;;;;11.38;79.54;101088.48;1697254;84;21179;-77
2022/10/29 03:42:38;;;;;;;14.87;6.37;;;;;;;11.28;79.79;101082.27;1697211;84;21253;-78
2022/10/29 03:45:44;;;;;;;10.82;7.53;;;;;;;11.25;79.72;101077.14;1697214;84;21191;-77
2022/10/29 03:48:50;;;;;;;11.40;7.50;;;;;;;11.24;79.79;101080.87;1695885;84;21207;-77
2022/10/29 03:51:58;;;;;;;11.78;7.58;;;;;;;11.22;79.97;101081.56;1697181;84;21188;-77
2022/10/29 03:55:04;;;;;;;14.23;7.53;;;;;;;11.23;80.03;101075.91;1695994;84;21880;-76
2022/10/29 03:58:10;;;;;;;9.65;7.40;;;;;;;11.23;79.90;101080.02;1697272;84;21231;-76
2022/10/29 04:01:10;;;;;;;13.50;6.58;;;;;;;11.25;79.59;101081.25;1697218;84;21730;-77
2022/10/29 04:04:16;;;;;;;;;;;;;;;11.17;79.72;101067.50;1699581;84;21805;-77
2022/10/29 04:07:22;;;;;;;12.15;7.30;;;;;;;11.26;79.32;101071.49;1697168;84;21178;-77
2022/10/29 04:10:28;;;;;;;10.78;7.28;;;;;;;11.02;80.02;101060.91;1696167;84;21390;-78
2022/10/29 04:13:34;;;;;;;11.85;8.58;;;;;;;10.94;80.22;101058.45;1696119;84;21207;-77
2022/10/29 04:16:39;;;;;;;15.88;9.50;;;;;;;10.89;80.23;101052.60;1697252;84;21203;-77
2022/10/29 04:19:45;;;;;;;14.43;9.23;;;;;;;10.87;80.33;101056.02;1697303;84;21207;-77
2022/10/29 04:22:50;;;;;;;12.70;8.93;;;;;;;10.94;80.11;101057.59;1697086;84;21211;-77
2022/10/29 04:26:06;;;;;;;10.23;7.83;;;;;;;10.84;80.45;101053.59;1697574;82;21171;-77
2022/10/29 04:29:13;;;;;;;13.45;9.73;;;;;;;10.81;80.70;101059.38;1698010;82;21203;-77
2022/10/29 04:32:20;;;;;;;13.28;8.48;;;;;;;10.83;80.71;101057.87;1695977;84;21825;-77
2022/10/29 04:35:19;;;;;;;16.48;9.03;;;;;;;10.70;80.98;101048.19;1696175;84;21218;-76
2022/10/29 04:38:24;;;;;;;12.95;8.60;;;;;;;10.64;81.34;101065.25;1696823;82;21742;-77
2022/10/29 04:41:30;;;;;;;12.73;9.30;;;;;;;10.52;81.65;101050.59;1697246;84;21196;-77
2022/10/29 04:44:36;;;;;;;14.30;8.65;;;;;;;10.50;81.62;101052.13;1696734;84;21759;-77
2022/10/29 04:47:43;;;;;;;13.75;9.48;;;;;;;10.41;81.74;101062.66;1697296;84;21212;-77
2022/10/29 04:50:50;;;;;;;15.32;10.32;;;;;;;10.45;81.40;101052.61;1697169;84;21737;-77
2022/10/29 04:53:57;;;;;;;15.88;10.65;;;;;;;10.40;81.18;101050.00;1696661;84;21230;-77
2022/10/29 04:57:02;;;;;;;19.45;11.73;;;;;;;10.32;81.78;101063.08;1697215;84;21196;-77
2022/10/29 05:00:08;;;;;;;20.65;11.12;;;;;;;10.46;81.84;101070.73;1697235;84;21227;-77
2022/10/29 05:03:15;;;;;;;18.90;11.97;;;;;;;10.62;81.40;101077.35;1696015;84;21259;-77
2022/10/29 05:06:21;;;;;;;13.95;10.55;;;;;;;10.66;81.49;101078.25;1695972;84;21203;-77
2022/10/29 05:09:21;;;;;;;18.90;10.72;;;;;;;10.67;82.14;101083.20;1696379;84;21199;-77
2022/10/29 05:12:15;;;;;;;14.23;11.05;;;;;;;10.88;81.67;101087.84;1695988;84;21793;-77
2022/10/29 05:15:02;;;;;;;13.75;10.85;;;;;;;10.93;81.86;101085.48;1696710;84;21183;-76
2022/10/29 05:17:55;;;;;;;15.00;11.12;;;;;;;10.95;82.11;101086.16;1697146;84;21199;-77
2022/10/29 05:20:41;;;;;;;19.27;11.78;;;;;;;11.04;82.36;101084.86;1697290;84;21516;-76
2022/10/29 05:23:48;;;;;;;19.17;12.70;;;;;;;11.17;82.25;101079.82;1697314;84;21223;-77
2022/10/29 05:26:54;;;;;;;19.45;13.03;;;;;;;11.11;83.00;101079.11;1695824;84;21234;-77
2022/10/29 05:30:00;;;;;;;20.88;12.95;;;;;;;11.17;83.88;101074.34;1697118;84;21239;-77
2022/10/29 05:33:06;;;;;;;22.48;12.53;;;;;;;11.46;83.55;101065.77;1697260;84;21196;-78
2022/10/29 05:36:13;;;;;;;18.50;13.15;;;;;;;11.64;83.32;101068.43;1696254;84;21203;-78
2022/10/29 05:39:19;;;;;;;21.33;13.08;;;;;;;11.72;83.63;101069.84;1695701;82;21858;-78
2022/10/29 05:42:25;;;;;;;17.27;11.08;;;;;;;11.87;83.38;101064.09;1695323;84;21196;-78
2022/10/29 05:45:32;;;;;;;17.57;12.68;;;;;;;12.20;82.70;101069.66;1694709;84;21846;-77
2022/10/29 05:48:39;;;;;;;21.40;11.83;;;;;;;12.31;82.33;101071.22;1695226;84;21215;-78
2022/10/29 05:51:46;;;;;;;20.40;12.73;;;;;;;12.91;80.52;101059.91;1695085;84;21302;-78
2022/10/29 05:54:52;;;;;;;21.40;12.00;;;;;;;12.64;82.07;101070.21;1694688;84;21231;-77
2022/10/29 05:58:05;;;;;;;13.78;11.03;;;;;;;12.62;82.31;101068.17;1695035;84;21243;-77
2022/10/29 06:01:18;;;;;;;21.00;12.43;;;;;;;12.76;82.05;101074.34;1696110;84;21215;-77
2022/10/29 06:04:22;;;;;;;17.12;10.78;;;;;;;12.83;82.18;101066.26;1695156;84;21200;-78
2022/10/29 06:07:28;;;;;;;18.37;11.68;;;;;;;13.03;81.67;101074.50;1695157;84;21755;-77
2022/10/29 06:10:34;;;;;;;19.52;11.35;;;;;;;13.11;81.57;101072.75;1694758;84;22463;-77
2022/10/29 06:13:40;;;;;;;22.75;13.65;;;;;;;13.10;81.83;101059.54;1694390;83;21207;-77
2022/10/29 06:16:46;;;;;;;18.95;11.08;;;;;;;13.23;81.47;101065.91;1694257;84;21183;-77
2022/10/29 06:19:51;;;;;;;21.45;13.48;;;;;;;13.43;81.05;101058.97;1674077;84;21199;-77
2022/10/29 06:23:04;;;;;;;19.45;12.88;;;;;;;13.64;80.23;101058.36;1693914;83;21203;-76
2022/10/29 06:26:10;;;;;;;17.37;11.95;;;;;;;14.11;78.80;101044.20;1694061;84;21222;-77
2022/10/29 06:29:16;;;;;;;20.75;13.40;;;;;;;14.28;78.25;101044.44;1695363;84;21192;-76
2022/10/29 06:32:22;;;;;;;18.75;13.13;;;;;;;14.10;78.78;101048.00;1695169;84;21246;-77
2022/10/29 06:35:27;;;;;;;21.35;12.47;;;;;;;14.33;78.17;101048.35;1695154;84;21191;-77
2022/10/29 06:38:34;;;;;;;17.50;11.80;;;;;;;14.50;77.59;101050.51;1695214;84;21235;-79
2022/10/29 06:41:39;;;;;;;16.73;11.80;;;;;;;14.62;77.31;101050.06;1693842;84;21215;-79
2022/10/29 06:44:46;;;;;;;17.95;11.28;;;;;;;14.64;77.24;101046.63;1694402;84;21245;-80
2022/10/29 06:47:52;;;;;;;21.10;12.47;;;;;;;14.89;76.52;101045.34;1692900;83;21214;-79
2022/10/29 06:50:59;;;;;;;22.55;12.80;;;;;;;14.81;76.73;101042.66;1694236;84;21811;-79
2022/10/29 06:54:04;;;;;;;20.32;12.23;;;;;;;15.05;76.10;101039.66;1694048;84;21219;-78
2022/10/29 06:57:09;;;;;;;17.80;10.88;;;;;;;15.13;75.73;101043.39;1692691;84;21798;-77
2022/10/29 07:00:15;;;;;;;19.27;11.83;;;;;;;15.17;75.55;101039.22;1693955;84;21187;-77
2022/10/29 07:03:22;;;;;;;20.85;13.03;;;;;;;15.28;74.91;101051.14;1695705;84;21171;-77
2022/10/29 07:06:28;;;;;;;19.55;10.55;;;;;;;14.87;75.84;101043.31;1695360;84;21235;-77
2022/10/29 07:09:35;;;;;;;16.85;11.20;;;;;;;14.63;77.06;101042.98;1693870;84;21341;-76
2022/10/29 07:12:52;;;;;;;20.52;11.60;;;;;;;14.65;77.18;101038.69;1695186;84;21239;-77
2022/10/29 07:15:57;;;;;;;16.95;10.80;;;;;;;14.83;75.82;101041.45;1709949;82;21749;-77
2022/10/29 07:19:03;;;;;;;18.02;11.55;;;;;;;14.87;75.38;101041.94;1693934;83;21195;-77
2022/10/29 07:22:10;;;;;;;15.08;10.50;;;;;;;14.85;74.79;101042.62;1695313;84;21750;-77
2022/10/29 07:25:16;;;;;;;16.67;10.55;;;;;;;14.81;74.75;101036.63;1695286;84;21191;-77
2022/10/29 07:28:24;;;;;;;16.97;11.00;;;;;;;14.73;75.02;101044.13;1695334;84;21739;-78
2022/10/29 07:31:29;;;;;;;15.70;10.35;;;;;;;14.80;75.30;101031.31;1695308;84;21861;-77
2022/10/29 07:34:36;;;;;;;21.40;10.65;;;;;;;15.05;74.85;101029.16;1695167;84;21750;-77
2022/10/29 07:37:43;;;;;;;16.87;9.80;;;;;;;15.32;73.97;101035.94;1694345;84;21829;-77
2022/10/29 07:40:57;;;;;;;21.07;10.85;;;;;;;15.27;74.03;101041.17;1696345;82;21230;-77
2022/10/29 07:44:02;;;;;;;15.88;9.83;;;;;;;15.24;73.75;101033.27;1697247;84;21247;-78
2022/10/29 07:47:09;;;;;;;17.67;11.40;;;;;;;15.18;73.68;101038.16;1697063;84;21219;-77
2022/10/29 07:50:16;;;;;;;16.12;9.88;;;;;;;15.16;73.58;101037.52;1697265;84;21824;-78
2022/10/29 07:53:22;;;;;;;15.80;10.60;;;;;;;15.20;73.45;101033.34;1695645;84;21223;-78
2022/10/29 07:56:28;;;;;;;17.02;10.15;;;;;;;15.26;73.26;101033.95;1695778;84;21227;-80
2022/10/29 07:59:36;;;;;;;13.60;10.03;;;;;;;15.28;73.28;101034.08;1697250;84;21405;-79
2022/10/29 08:02:42;;;;;;;17.75;10.00;;;;;;;15.33;73.25;101034.89;1697208;84;21285;-79
2022/10/29 08:05:48;;;;;;;26.82;10.32;;;;;;;15.44;72.76;101031.67;1697336;84;21314;-78
2022/10/29 08:08:55;;;;;;;15.88;9.83;;;;;;;15.54;72.51;101038.27;1697180;84;21828;-78
2022/10/29 08:12:01;;;;;;;15.23;9.53;;;;;;;15.62;72.90;101039.56;1695930;84;21365;-78
2022/10/29 08:15:06;;;;;;;11.55;8.70;;;;;;;15.70;73.04;101033.95;1696201;84;21202;-78
2022/10/29 08:18:19;;;;;;;12.82;9.13;;;;;;;15.90;73.04;101042.99;1695271;84;21234;-78
2022/10/29 08:21:24;;;;;;;16.55;10.08;;;;;;;15.95;72.72;101046.03;1696261;84;21199;-78
2022/10/29 08:24:30;;;;;;;14.33;8.68;;;;;;;16.04;72.59;101037.47;1696656;84;21207;-78
2022/10/29 08:27:36;;;;;;;12.98;9.80;;;;;;;16.21;72.43;101036.69;1695791;84;21286;-78
2022/10/29 08:30:44;;;;;;;10.60;8.80;;;;;;;16.10;73.21;101031.69;1695402;84;21223;-78
2022/10/29 08:33:50;;;;;;;19.67;10.88;;;;;;;16.27;72.95;101035.89;1696958;84;21267;-78
2022/10/29 08:36:56;;;;;;;15.18;9.15;;;;;;;16.24;72.71;101039.06;1696605;84;21770;-78
2022/10/29 08:40:02;;;;;;;15.00;8.85;;;;;;;16.38;72.13;101037.30;1705231;84;21244;-78
2022/10/29 08:43:37;;;;;;;14.28;9.70;;;;;;;16.36;71.75;101029.20;1675635;83;21223;-79
2022/10/29 08:47:13;;;;;;;15.23;9.15;;;;;;;16.42;71.40;101020.67;1691438;84;21768;-79
2022/10/29 08:50:28;;;;;;;13.53;9.18;;;;;;;16.54;71.16;101002.50;1705756;83;21212;-80
2022/10/29 08:53:49;;;;;;;15.90;9.85;;;;;;;16.75;70.57;100996.64;1682919;85;21272;-77
2022/10/29 08:56:59;;;;;;;14.70;9.55;;;;;;;16.81;70.60;101004.16;1706497;83;21184;-78
2022/10/29 09:00:15;;;;;;;13.62;9.58;;;;;;;16.99;70.46;101007.27;1683660;85;21217;-78
2022/10/29 09:03:20;;;;;;;21.93;9.83;;;;;;;17.03;70.38;101000.79;1707440;84;21164;-78
2022/10/29 09:06:41;;;;;;;13.10;9.33;;;;;;;17.12;70.32;100998.20;1685017;85;21168;-77
2022/10/29 09:10:44;;;;;;;18.00;9.70;;;;;;;17.52;68.79;101000.67;1707536;82;21208;-77
2022/10/29 09:14:01;;;;;;;11.80;8.53;;;;;;;17.12;69.26;101005.11;1684517;83;21287;-77
2022/10/29 09:17:27;;;;;;;16.37;9.63;;;;;;;17.18;68.53;101002.94;1701174;84;21216;-77
2022/10/29 09:20:40;;;;;;;18.23;8.48;;;;;;;17.04;68.78;100994.23;1683931;85;21248;-77
2022/10/29 09:24:14;;;;;;;15.35;9.28;;;;;;;16.93;68.95;100991.48;1706804;84;21188;-78
2022/10/29 09:27:33;;;;;;;13.35;9.95;;;;;;;16.91;68.83;100988.08;1674418;85;21174;-77
2022/10/29 09:30:40;;;;;;;15.43;9.50;;;;;;;16.88;69.01;100985.70;1650095;85;21523;-79
2022/10/29 09:33:46;;;;;;;10.48;8.45;;;;;;;16.86;69.19;100986.45;1694093;84;21241;-79
2022/10/29 09:36:53;;;;;;;15.18;9.55;;;;;;;16.94;69.41;100979.39;1692386;84;21201;-79
2022/10/29 09:39:58;;;;;;;13.25;9.63;;;;;;;16.86;69.32;100976.24;1692390;84;21193;-79
2022/10/29 09:43:04;;;;;;;26.20;10.48;;;;;;;16.88;69.39;100973.80;1707115;82;21219;-79
2022/10/29 09:46:38;;;;;;;13.32;8.55;;;;;;;16.93;69.51;100966.61;1697580;83;21754;-78
2022/10/29 09:50:02;;;;;;;21.07;9.33;;;;;;;17.04;69.14;100959.69;1716362;83;21235;-78
2022/10/29 09:53:08;;;;;;;19.80;9.93;;;;;;;17.28;68.36;100948.66;1691296;83;21215;-77
2022/10/29 09:56:15;;;;;;;12.13;9.08;;;;;;;17.34;67.91;100940.91;1717524;83;21790;-78
2022/10/29 09:59:38;;;;;;;20.85;9.80;;;;;;;17.39;67.75;100932.85;1716521;83;22411;-78
2022/10/29 10:02:56;;;;;;;14.68;9.00;;;;;;;17.46;67.55;100917.69;1716464;83;21196;-77
2022/10/29 10:06:13;;;;;;;16.27;10.15;;;;;;;17.54;67.23;100916.95;1691176;83;21317;-77
2022/10/29 10:09:19;;;;;;;13.05;9.75;;;;;;;17.67;67.08;100920.30;1677459;84;21296;-77
2022/10/29 10:12:36;;;;;;;16.80;10.18;;;;;;;17.65;67.36;100925.73;1634622;88;21208;-78
2022/10/29 10:15:44;;;;;;;14.83;10.35;;;;;;;17.74;66.99;100918.98;1676479;85;21224;-78
2022/10/29 10:18:50;;;;;;;14.90;10.25;;;;;;;17.66;67.14;100911.69;1634851;88;21200;-77
2022/10/29 10:22:10;;;;;;;15.90;10.63;;;;;;;17.66;67.23;100903.92;1675073;85;21771;-77
2022/10/29 10:25:39;;;;;;;18.15;11.00;;;;;;;17.70;66.88;100901.06;1658980;85;21228;-77
2022/10/29 10:28:46;;;;;;;17.40;10.58;;;;;;;17.73;66.35;100902.89;1635539;88;21834;-77
2022/10/29 10:32:07;;;;;;;13.45;9.50;;;;;;;17.73;66.73;100897.86;1676763;85;21827;-78
2022/10/29 10:35:34;;;;;;;13.50;9.80;;;;;;;17.53;67.06;100882.59;1634611;88;21811;-78
2022/10/29 10:38:52;;;;;;;16.42;9.90;;;;;;;17.57;67.09;100877.83;1676321;85;21221;-77
2022/10/29 10:41:57;;;;;;;15.28;10.90;;;;;;;17.51;66.89;100869.52;1634830;88;21196;-77
2022/10/29 10:45:11;;;;;;;14.68;11.10;;;;;;;17.54;66.79;100860.25;1677761;85;21354;-77
2022/10/29 10:48:17;;;;;;;13.83;10.20;;;;;;;17.45;67.00;100854.59;1632041;88;21212;-78
2022/10/29 10:51:38;;;;;;;16.27;10.88;;;;;;;17.47;67.31;100854.41;1604745;89;21820;-78
2022/10/29 10:54:51;;;;;;;17.35;11.08;;;;;;;17.59;66.93;100856.33;1603563;88;21274;-78
2022/10/29 10:58:21;;;;;;;14.58;11.05;;;;;;;17.47;67.53;100855.25;1604760;89;21241;-78
2022/10/29 11:01:40;;;;;;;;;;;;;;;17.60;67.83;100858.59;1607805;89;21215;-77
2022/10/29 11:04:48;;;;;;;15.93;10.75;;;;;;;17.67;67.83;100854.45;1632085;88;20236;-77
2022/10/29 11:07:48;;;;;;;17.73;10.98;;;;;;;17.61;68.38;100850.08;1604820;89;21218;-77
2022/10/29 11:11:04;;;;;;;23.25;11.57;;;;;;;17.65;68.14;100837.22;1603880;88;21318;-77
2022/10/29 11:14:17;;;;;;;19.37;11.38;;;;;;;17.55;68.54;100835.71;1604638;89;21238;-77
2022/10/29 11:17:30;;;;;;;20.30;11.90;;;;;;;17.84;67.62;100827.59;1604690;89;21230;-78
2022/10/29 11:20:40;;;;;;;20.85;12.13;;;;;;;18.01;66.43;100825.77;1604002;89;21788;-77
2022/10/29 11:24:09;;;;;;;18.32;11.83;;;;;;;18.22;65.30;100824.19;1603771;88;21234;-77
2022/10/29 11:27:39;;;;;;;18.35;12.65;;;;;;;18.11;65.23;100823.42;1604744;89;21234;-77
2022/10/29 11:30:50;;;;;;;18.17;11.10;;;;;;;18.05;65.24;100815.45;1604173;89;21861;-77
2022/10/29 11:34:09;;;;;;;25.05;12.93;;;;;;;18.03;65.62;100812.05;1604915;89;21234;-78
2022/10/29 11:37:22;;;;;;;19.02;12.50;;;;;;;17.99;66.10;100803.85;1604833;89;21282;-77
2022/10/29 11:40:37;;;;;;;18.07;11.75;;;;;;;18.16;65.76;100810.33;1597691;89;21258;-77
2022/10/29 11:43:43;;;;;;;22.82;12.53;;;;;;;18.25;65.57;100802.13;1604762;89;21788;-77
2022/10/29 11:47:37;;;;;;;16.17;11.00;;;;;;;18.23;65.62;100798.19;1632176;88;21234;-78
2022/10/29 11:51:08;;;;;;;20.97;12.75;;;;;;;18.24;65.85;100802.66;1670824;86;21240;-77
2022/10/29 11:54:38;;;;;;;18.52;12.28;;;;;;;18.23;65.42;100795.42;1672236;86;22521;-77
2022/10/29 11:57:59;;;;;;;21.55;11.78;;;;;;;18.26;65.55;100792.23;1660201;86;21813;-78
2022/10/29 12:01:26;;;;;;;19.25;12.37;;;;;;;18.08;66.52;100794.27;1671309;86;21244;-78
2022/10/29 12:04:56;;;;;;;20.70;11.45;;;;;;;18.17;66.49;100788.52;1659250;86;21219;-77
2022/10/29 12:08:10;;;;;;;17.15;12.50;;;;;;;18.04;67.00;100790.22;1672265;86;21212;-77
2022/10/29 12:11:34;;;;;;;18.27;12.95;;;;;;;18.06;66.42;100783.08;1659509;86;21243;-77
2022/10/29 12:15:20;;;;;;;21.23;12.95;;;;;;;18.19;65.51;100767.00;1670807;86;21209;-77
2022/10/29 12:18:58;;;;;;;19.07;12.40;;;;;;;18.14;65.51;100767.11;1664321;86;21232;-76
2022/10/29 12:22:15;;;;;;;17.23;11.08;;;;;;;18.22;65.24;100765.20;1659051;86;21268;-77
2022/10/29 12:26:06;;;;;;;19.05;10.50;;;;;;;18.33;64.80;100755.68;1672312;86;21896;-77
2022/10/29 12:29:53;;;;;;;19.30;11.22;;;;;;;18.67;63.64;100761.12;1660301;86;22512;-77
2022/10/29 12:33:15;;;;;;;26.00;12.15;;;;;;;18.50;64.17;100764.38;1670914;85;21259;-79
2022/10/29 12:36:43;;;;;;;18.85;11.88;;;;;;;18.39;64.39;100753.95;1660305;86;21212;-78
2022/10/29 12:39:58;;;;;;;20.48;12.40;;;;;;;18.38;64.65;100747.56;1664304;86;21512;-79
2022/10/29 12:43:06;;;;;;;16.40;12.35;;;;;;;18.47;64.94;100741.80;1660559;86;21215;-77
2022/10/29 12:46:32;;;;;;;21.73;12.03;;;;;;;18.46;65.22;100740.11;1667580;85;21220;-78
2022/10/29 12:49:48;;;;;;;21.68;12.80;;;;;;;18.49;65.20;100738.27;1653056;87;21256;-78
2022/10/29 12:53:08;;;;;;;18.40;11.28;;;;;;;18.53;64.47;100736.77;1667027;86;21538;-77
2022/10/29 12:56:15;;;;;;;16.77;11.57;;;;;;;18.49;64.46;100729.45;1653109;87;21802;-77
2022/10/29 12:59:37;;;;;;;21.02;11.43;;;;;;;18.44;64.57;100729.22;1666999;86;21249;-78
2022/10/29 13:02:50;;;;;;;16.65;11.50;;;;;;;18.31;64.93;100729.29;1651999;87;21232;-78
2022/10/29 13:05:58;;;;;;;14.10;10.93;;;;;;;18.37;64.90;100725.64;1667015;86;21859;-78
2022/10/29 13:09:04;;;;;;;20.70;11.68;;;;;;;18.43;64.93;100726.14;1651841;85;21240;-77
2022/10/29 13:12:19;;;;;;;16.80;11.05;;;;;;;18.24;65.75;100716.83;1666066;86;21300;-77
2022/10/29 13:15:28;;;;;;;16.52;10.53;;;;;;;18.30;65.86;100714.59;1653229;87;21327;-77
2022/10/29 13:19:09;;;;;;;17.52;10.43;;;;;;;18.38;65.47;100710.72;1666958;86;21209;-77
2022/10/29 13:22:25;;;;;;;20.72;10.30;;;;;;;18.51;64.83;100711.22;1666113;86;21225;-78
2022/10/29 13:25:42;;;;;;;19.90;11.95;;;;;;;18.60;64.43;100709.37;1653772;87;21195;-78
2022/10/29 13:28:53;;;;;;;18.37;11.63;;;;;;;18.67;63.64;100697.39;1665680;86;21272;-77
2022/10/29 13:31:59;;;;;;;20.40;11.43;;;;;;;18.67;62.50;100695.47;1652382;87;21302;-77
2022/10/29 13:35:07;;;;;;;30.80;12.78;;;;;;;18.48;62.79;100698.64;1666914;86;21521;-77
2022/10/29 13:38:19;;;;;;;17.60;10.93;;;;;;;18.25;63.38;100694.98;1654070;87;21754;-77
2022/10/29 13:41:31;;;;;;;14.90;10.05;;;;;;;18.44;62.65;100687.68;1666984;86;21228;-77
2022/10/29 13:44:36;;;;;;;16.35;9.58;;;;;;;18.36;62.94;100677.72;1653163;87;21315;-77
2022/10/29 13:47:35;;;;;;;14.20;9.85;;;;;;;18.34;62.60;100672.06;1668917;86;21265;-77
2022/10/29 13:50:34;;;;;;;18.80;9.85;;;;;;;18.24;62.60;100666.14;1660214;86;21211;-77
2022/10/29 13:53:31;;;;;;;21.90;11.78;;;;;;;18.12;63.10;100665.98;1670871;86;21225;-77
2022/10/29 13:56:54;;;;;;;17.05;11.00;;;;;;;18.18;62.88;100662.88;1660276;86;21200;-78
2022/10/29 14:00:25;;;;;;;14.73;9.15;;;;;;;17.90;63.74;100663.16;1672515;86;21515;-77
2022/10/29 14:03:42;;;;;;;16.20;9.25;;;;;;;17.68;64.55;100665.27;1659022;86;21231;-77
2022/10/29 14:06:48;;;;;;;15.98;10.45;;;;;;;17.65;64.61;100661.56;1672016;86;21193;-77
2022/10/29 14:10:00;;;;;;;14.53;8.80;;;;;;;17.58;64.78;100653.25;1659468;85;21255;-77
2022/10/29 14:13:04;;;;;;;16.70;10.15;;;;;;;17.52;65.03;100653.59;1671196;86;21255;-77
2022/10/29 14:16:15;;;;;;;16.75;10.50;;;;;;;17.56;64.87;100654.86;1660392;86;21212;-78
2022/10/29 14:19:27;;;;;;;16.48;10.58;;;;;;;17.53;65.11;100651.13;1670936;86;21209;-77
2022/10/29 14:22:39;;;;;;;17.70;9.98;;;;;;;17.29;65.83;100648.48;1660402;86;21219;-77
2022/10/29 14:25:45;;;;;;;15.95;9.40;;;;;;;17.23;66.19;100652.09;1670846;85;21208;-77
2022/10/29 14:28:50;;;;;;;17.62;10.23;;;;;;;17.18;66.43;100644.13;1660242;86;21217;-78
2022/10/29 14:32:01;;;;;;;17.87;11.20;;;;;;;17.19;66.45;100639.77;1671902;86;21220;-77
2022/10/29 14:35:07;;;;;;;14.53;9.55;;;;;;;17.12;66.79;100636.13;1665187;86;21272;-77
2022/10/29 14:38:13;;;;;;;20.70;10.35;;;;;;;17.01;67.08;100629.86;1660262;86;21196;-77